createdAt,value
2023-03-11T00:00:13.352Z,0.50
2023-03-11T00:02:40.986Z,0.30
2023-03-11T00:05:08.432Z,0.95
2023-03-11T00:07:34.830Z,0.20
2023-03-11T00:10:01.183Z,0.50
2023-03-11T00:12:27.530Z,0.60
2023-03-11T00:14:53.911Z,0.30
2023-03-11T00:17:20.250Z,0.50
2023-03-11T00:19:46.934Z,0.60
2023-03-11T00:22:13.284Z,0.60
2023-03-11T00:24:39.605Z,0.50
2023-03-11T00:27:06.858Z,0.75
2023-03-11T00:29:33.210Z,0.60
2023-03-11T00:31:59.527Z,0.73
2023-03-11T00:34:25.931Z,0.40
2023-03-11T00:36:52.268Z,0.93
2023-03-11T00:39:18.609Z,0.70
2023-03-11T00:41:44.998Z,0.98
2023-03-11T00:44:12.530Z,0.70
2023-03-11T00:46:38.839Z,0.57
2023-03-11T00:49:05.345Z,0.40
2023-03-11T00:51:34.138Z,0.60
2023-03-11T00:54:01.326Z,0.73
2023-03-11T00:56:27.686Z,0.50
2023-03-11T00:58:54.050Z,0.43
2023-03-11T01:01:20.690Z,0.50
2023-03-11T01:03:47.091Z,0.60
2023-03-11T01:06:13.638Z,0.50
2023-03-11T01:08:40.035Z,0.52
2023-03-11T01:11:06.994Z,0.60
2023-03-11T01:13:33.761Z,0.55
2023-03-11T01:16:00.226Z,0.40
2023-03-11T01:18:26.940Z,0.50
2023-03-11T01:20:53.453Z,0.40
2023-03-11T01:23:20.288Z,0.50
2023-03-11T01:25:46.597Z,0.50
2023-03-11T01:28:13.357Z,1.10
2023-03-11T01:30:40.351Z,0.60
2023-03-11T01:33:07.613Z,0.80
2023-03-11T01:35:35.397Z,0.60
2023-03-11T01:38:01.754Z,0.50
2023-03-11T01:40:38.489Z,1.05
2023-03-11T01:43:06.470Z,0.50
2023-03-11T01:45:35.561Z,0.60
2023-03-11T01:48:02.049Z,0.40
2023-03-11T01:50:31.614Z,0.30
2023-03-11T01:52:58.026Z,0.43
2023-03-11T01:55:24.481Z,0.50
2023-03-11T01:57:51.846Z,0.38
2023-03-11T02:00:18.396Z,0.60
2023-03-11T02:02:47.609Z,0.93
2023-03-11T02:05:14.303Z,0.73
2023-03-11T02:07:40.864Z,0.35
2023-03-11T02:10:07.591Z,0.75
2023-03-11T02:12:35.211Z,0.50
2023-03-11T02:15:01.949Z,0.77
2023-03-11T02:17:28.447Z,0.40
2023-03-11T02:19:54.729Z,0.60
2023-03-11T02:22:21.061Z,0.68
2023-03-11T02:24:55.290Z,0.55
2023-03-11T02:27:22.090Z,0.28
2023-03-11T02:29:50.024Z,0.40
2023-03-11T02:32:16.644Z,0.40
2023-03-11T02:34:43.083Z,0.57
2023-03-11T02:37:13.664Z,0.52
2023-03-11T02:39:41.858Z,0.68
2023-03-11T02:42:12.097Z,0.40
2023-03-11T02:44:39.528Z,0.50
2023-03-11T02:47:06.440Z,1.35
2023-03-11T02:49:32.920Z,1.27
2023-03-11T02:51:59.228Z,0.50
2023-03-11T02:54:25.648Z,2.05
2023-03-11T02:56:51.950Z,0.45
2023-03-11T02:59:18.283Z,0.47
2023-03-11T03:01:44.825Z,0.60
2023-03-11T03:04:11.495Z,0.40
2023-03-11T03:06:37.998Z,0.50
2023-03-11T03:09:04.409Z,0.35
2023-03-11T03:11:30.738Z,0.70
2023-03-11T03:13:57.117Z,0.40
2023-03-11T03:16:23.485Z,0.45
2023-03-11T03:18:49.838Z,0.40
2023-03-11T03:21:16.142Z,0.60
2023-03-11T03:23:42.510Z,0.30
2023-03-11T03:26:12.637Z,1.35
2023-03-11T03:28:38.982Z,1.27
2023-03-11T03:31:06.710Z,0.38
2023-03-11T03:33:33.135Z,0.60
2023-03-11T03:35:59.521Z,0.40
2023-03-11T03:38:25.910Z,0.40
2023-03-11T03:40:52.219Z,0.43
2023-03-11T03:43:18.605Z,0.57
2023-03-11T03:45:44.944Z,1.08
2023-03-11T03:48:11.248Z,0.52
2023-03-11T03:50:39.140Z,0.50
2023-03-11T03:53:06.239Z,0.40
2023-03-11T03:55:32.567Z,0.50
2023-03-11T03:57:58.966Z,0.45
2023-03-11T04:00:25.401Z,0.40
2023-03-11T04:02:51.702Z,0.47
2023-03-11T04:05:18.145Z,0.60
2023-03-11T04:07:44.535Z,0.40
2023-03-11T04:10:13.246Z,0.50
2023-03-11T04:12:39.577Z,0.50
2023-03-11T04:15:06.332Z,0.52
2023-03-11T04:17:32.673Z,0.32
2023-03-11T04:19:58.974Z,0.20
2023-03-11T04:22:25.371Z,0.70
2023-03-11T04:24:51.683Z,0.40
2023-03-11T04:27:18.068Z,0.30
2023-03-11T04:29:44.423Z,0.60
2023-03-11T04:32:10.788Z,0.65
2023-03-11T04:34:37.216Z,0.70
2023-03-11T04:37:03.563Z,0.50
2023-03-11T04:39:30.031Z,0.73
2023-03-11T04:41:57.025Z,0.60
2023-03-11T04:44:23.437Z,0.63
2023-03-11T04:46:49.784Z,0.80
2023-03-11T04:49:16.184Z,0.70
2023-03-11T04:51:42.706Z,0.50
2023-03-11T04:54:09.246Z,0.65
2023-03-11T04:56:35.675Z,0.85
2023-03-11T04:59:01.996Z,0.50
2023-03-11T05:01:28.450Z,0.40
2023-03-11T05:03:54.904Z,0.60
2023-03-11T05:06:21.218Z,0.60
2023-03-11T05:08:47.526Z,0.75
2023-03-11T05:11:13.992Z,0.40
2023-03-11T05:13:40.378Z,0.80
2023-03-11T05:16:06.951Z,0.60
2023-03-11T05:18:33.286Z,0.57
2023-03-11T05:20:59.699Z,1.17
2023-03-11T05:23:26.025Z,0.50
2023-03-11T05:25:52.431Z,0.60
2023-03-11T05:28:18.804Z,0.38
2023-03-11T05:30:45.118Z,0.40
2023-03-11T05:33:11.465Z,0.55
2023-03-11T05:35:37.807Z,0.52
2023-03-11T05:38:04.160Z,0.95
2023-03-11T05:40:30.462Z,0.55
2023-03-11T05:42:56.761Z,0.60
2023-03-11T05:45:23.127Z,0.55
2023-03-11T05:47:49.532Z,0.63
2023-03-11T05:50:15.899Z,0.57
2023-03-11T05:52:42.294Z,0.45
2023-03-11T05:55:09.946Z,0.47
2023-03-11T05:57:36.285Z,0.50
2023-03-11T06:00:05.587Z,0.55
2023-03-11T06:02:31.926Z,0.57
2023-03-11T06:04:58.314Z,0.57
2023-03-11T06:07:24.768Z,0.68
2023-03-11T06:09:51.194Z,0.65
2023-03-11T06:12:17.993Z,0.40
2023-03-11T06:14:44.341Z,0.68
2023-03-11T06:17:10.788Z,0.90
2023-03-11T06:19:37.164Z,0.50
2023-03-11T06:22:03.474Z,0.40
2023-03-11T06:24:29.832Z,1.15
2023-03-11T06:26:56.207Z,0.50
2023-03-11T06:29:24.446Z,0.63
2023-03-11T06:31:50.841Z,0.73
2023-03-11T06:34:17.226Z,1.77
2023-03-11T06:36:43.690Z,0.90
2023-03-11T06:39:12.326Z,1.98
2023-03-11T06:41:38.653Z,1.67
2023-03-11T06:44:05.138Z,1.67
2023-03-11T06:46:31.539Z,1.60
2023-03-11T06:48:58.105Z,1.73
2023-03-11T06:51:24.557Z,2.03
2023-03-11T06:53:53.782Z,1.95
2023-03-11T06:56:21.159Z,2.38
2023-03-11T06:58:48.063Z,2.58
2023-03-11T07:01:15.695Z,2.38
2023-03-11T07:03:42.460Z,2.85
2023-03-11T07:06:17.765Z,1.90
2023-03-11T07:08:45.825Z,1.30
2023-03-11T07:11:17.712Z,2.20
2023-03-11T07:13:44.577Z,1.95
2023-03-11T07:16:15.600Z,1.92
2023-03-11T07:18:45.048Z,2.78
2023-03-11T07:21:12.548Z,2.90
2023-03-11T07:23:39.055Z,2.90
2023-03-11T07:26:07.917Z,2.10
2023-03-11T07:28:34.239Z,1.92
2023-03-11T07:31:00.766Z,1.60
2023-03-11T07:33:27.318Z,1.60
2023-03-11T07:35:54.030Z,1.50
2023-03-11T07:38:20.357Z,1.17
2023-03-11T07:40:46.919Z,1.30
2023-03-11T07:43:13.405Z,2.00
2023-03-11T07:45:39.881Z,1.92
2023-03-11T07:48:06.483Z,1.83
2023-03-11T07:50:32.783Z,1.65
2023-03-11T07:52:59.104Z,1.65
2023-03-11T07:55:25.496Z,2.05
2023-03-11T07:57:52.134Z,1.48
2023-03-11T08:00:19.234Z,1.40
2023-03-11T08:02:45.605Z,2.10
2023-03-11T08:05:12.188Z,2.03
2023-03-11T08:07:38.577Z,1.58
2023-03-11T08:10:05.198Z,1.88
2023-03-11T08:12:31.550Z,1.45
2023-03-11T08:14:58.005Z,1.27
2023-03-11T08:17:24.441Z,1.30
2023-03-11T08:19:50.827Z,1.00
2023-03-11T08:22:17.238Z,1.08
2023-03-11T08:24:43.654Z,1.30
2023-03-11T08:27:10.153Z,1.00
2023-03-11T08:29:36.565Z,1.40
2023-03-11T08:32:03.701Z,1.52
2023-03-11T08:34:29.998Z,0.80
2023-03-11T08:36:56.579Z,0.90
2023-03-11T08:39:23.928Z,1.00
2023-03-11T08:41:50.286Z,1.05
2023-03-11T08:44:16.637Z,0.80
2023-03-11T08:46:42.989Z,0.80
2023-03-11T08:49:09.910Z,0.43
2023-03-11T08:51:36.559Z,0.70
2023-03-11T08:54:03.577Z,0.60
2023-03-11T08:56:30.202Z,0.80
2023-03-11T08:58:56.599Z,0.98
2023-03-11T09:01:23.700Z,0.88
2023-03-11T09:03:50.234Z,0.43
2023-03-11T09:06:17.666Z,0.65
2023-03-11T09:08:44.836Z,0.70
2023-03-11T09:11:13.569Z,0.40
2023-03-11T09:13:41.093Z,0.90
2023-03-11T09:16:09.783Z,0.68
2023-03-11T09:18:36.185Z,0.75
2023-03-11T09:21:02.565Z,0.68
2023-03-11T09:23:29.011Z,0.50
2023-03-11T09:25:55.334Z,0.57
2023-03-11T09:28:21.721Z,0.80
2023-03-11T09:30:48.038Z,1.00
2023-03-11T09:33:14.561Z,0.60
2023-03-11T09:35:40.982Z,0.80
2023-03-11T09:38:07.418Z,0.45
2023-03-11T09:40:52.127Z,0.68
2023-03-11T09:43:56.885Z,0.98
2023-03-11T09:46:34.448Z,0.50
2023-03-11T09:49:06.785Z,0.88
2023-03-11T09:51:36.141Z,1.13
2023-03-11T09:54:09.443Z,0.73
2023-03-11T09:56:36.077Z,0.60
2023-03-11T09:59:05.625Z,0.60
2023-03-11T10:01:37.484Z,0.70
2023-03-11T10:04:08.490Z,0.70
2023-03-11T10:06:35.142Z,0.80
2023-03-11T10:09:01.482Z,1.15
2023-03-11T10:11:36.717Z,0.70
2023-03-11T10:14:08.794Z,0.60
2023-03-11T10:16:42.925Z,0.80
2023-03-11T10:19:15.692Z,0.93
2023-03-11T10:22:06.669Z,0.60
2023-03-11T10:24:49.439Z,0.60
2023-03-11T10:27:19.673Z,0.40
2023-03-11T10:29:55.093Z,0.45
2023-03-11T10:32:27.470Z,0.60
2023-03-11T10:35:04.165Z,0.57
2023-03-11T10:37:48.044Z,0.30
2023-03-11T10:40:35.892Z,0.70
2023-03-11T10:43:03.944Z,0.60
2023-03-11T10:45:36.548Z,0.60
2023-03-11T10:48:03.017Z,0.57
2023-03-11T10:50:36.404Z,0.60
2023-03-11T10:53:07.977Z,0.73
2023-03-11T10:55:34.921Z,0.55
2023-03-11T10:58:27.402Z,0.32
2023-03-11T11:01:21.655Z,0.52
2023-03-11T11:03:50.038Z,0.40
2023-03-11T11:06:19.523Z,0.40
2023-03-11T11:08:46.224Z,0.50
2023-03-11T11:11:22.768Z,0.73
2023-03-11T11:13:58.852Z,0.40
2023-03-11T11:16:25.337Z,0.75
2023-03-11T11:18:58.687Z,0.60
2023-03-11T11:21:30.979Z,0.47
2023-03-11T11:24:16.658Z,0.50
2023-03-11T11:26:43.173Z,0.50
2023-03-11T11:29:09.545Z,0.70
2023-03-11T11:31:39.932Z,0.45
2023-03-11T11:34:24.886Z,0.32
2023-03-11T11:36:51.309Z,0.90
2023-03-11T11:39:20.095Z,0.50
2023-03-11T11:41:48.741Z,0.95
2023-03-11T11:44:17.902Z,0.68
2023-03-11T11:47:06.337Z,0.55
2023-03-11T11:49:34.622Z,0.50
2023-03-11T11:52:13.225Z,0.40
2023-03-11T11:54:39.521Z,0.50
2023-03-11T11:57:11.094Z,0.50
2023-03-11T11:59:37.602Z,0.60
2023-03-11T12:02:05.078Z,0.70
2023-03-11T12:04:37.823Z,0.63
2023-03-11T12:07:16.418Z,0.40
2023-03-11T12:09:48.710Z,0.50
2023-03-11T12:12:22.814Z,0.60
2023-03-11T12:15:07.697Z,0.40
2023-03-11T12:17:36.771Z,0.25
2023-03-11T12:20:08.638Z,0.63
2023-03-11T12:22:51.467Z,0.43
2023-03-11T12:25:22.579Z,0.50
2023-03-11T12:27:55.843Z,0.70
2023-03-11T12:30:27.905Z,0.35
2023-03-11T12:32:57.527Z,0.25
2023-03-11T12:35:31.496Z,0.40
2023-03-11T12:38:04.037Z,0.30
2023-03-11T12:40:46.667Z,0.32
2023-03-11T12:43:24.917Z,0.30
2023-03-11T12:45:52.177Z,0.13
2023-03-11T12:48:27.582Z,0.55
2023-03-11T12:50:54.605Z,0.50
2023-03-11T12:53:21.227Z,0.40
2023-03-11T12:56:10.484Z,0.70
2023-03-11T12:58:40.812Z,0.73
2023-03-11T13:01:13.836Z,0.45
2023-03-11T13:03:46.087Z,0.45
2023-03-11T13:06:21.489Z,0.63
2023-03-11T13:08:51.858Z,0.40
2023-03-11T13:11:33.540Z,0.57
2023-03-11T13:14:08.726Z,0.60
2023-03-11T13:16:36.079Z,0.65
2023-03-11T13:19:22.475Z,0.50
2023-03-11T13:24:35.033Z,0.50
2023-03-11T13:27:04.413Z,0.60
2023-03-11T13:29:44.024Z,0.50
2023-03-11T13:32:12.667Z,0.68
2023-03-11T13:34:57.637Z,0.60
2023-03-11T13:37:44.243Z,0.60
2023-03-11T13:40:16.653Z,0.30
2023-03-11T13:42:49.890Z,0.77
2023-03-11T13:45:27.474Z,0.40
2023-03-11T13:47:57.214Z,0.60
2023-03-11T13:50:30.003Z,0.43
2023-03-11T13:52:59.699Z,0.50
2023-03-11T13:55:55.522Z,0.88
2023-03-11T13:58:23.681Z,0.67
2023-03-11T14:00:53.895Z,0.70
2023-03-11T14:03:22.238Z,0.80
2023-03-11T14:05:56.921Z,0.60
2023-03-11T14:08:32.884Z,0.52
2023-03-11T14:11:00.379Z,0.60
2023-03-11T14:13:31.546Z,0.57
2023-03-11T14:16:04.071Z,0.65
2023-03-11T14:18:33.569Z,0.60
2023-03-11T14:21:00.912Z,0.32
2023-03-11T14:23:30.053Z,0.57
2023-03-11T14:26:00.424Z,0.52
2023-03-11T14:28:28.248Z,0.60
2023-03-11T14:31:01.328Z,0.70
2023-03-11T14:33:28.243Z,0.57
2023-03-11T14:35:56.911Z,0.65
2023-03-11T14:38:25.027Z,0.93
2023-03-11T14:41:02.055Z,0.68
2023-03-11T14:43:32.263Z,0.57
2023-03-11T14:45:59.443Z,0.60
2023-03-11T14:48:29.223Z,0.80
2023-03-11T14:50:57.613Z,1.15
2023-03-11T14:53:36.029Z,0.40
2023-03-11T14:56:07.315Z,0.90
2023-03-11T14:58:43.066Z,0.65
2023-03-11T15:01:21.705Z,0.45
2023-03-11T15:03:50.688Z,0.80
2023-03-11T15:06:22.570Z,0.43
2023-03-11T15:08:55.035Z,0.60
2023-03-11T15:11:24.442Z,0.93
2023-03-11T15:13:55.194Z,0.50
2023-03-11T15:16:23.284Z,0.35
2023-03-11T15:18:49.825Z,0.60
2023-03-11T15:21:17.955Z,0.40
2023-03-11T15:24:10.404Z,0.50
2023-03-11T15:26:38.279Z,0.75
2023-03-11T15:29:13.021Z,0.30
2023-03-11T15:31:40.279Z,0.50
2023-03-11T15:34:18.852Z,0.30
2023-03-11T15:36:55.461Z,0.35
2023-03-11T15:39:26.597Z,0.40
2023-03-11T15:42:02.111Z,0.50
2023-03-11T15:44:28.462Z,0.30
2023-03-11T15:46:54.841Z,0.70
2023-03-11T15:49:21.268Z,0.43
2023-03-11T15:51:47.642Z,1.10
2023-03-11T15:54:13.954Z,0.40
2023-03-11T15:56:40.898Z,0.50
2023-03-11T15:59:11.194Z,0.70
2023-03-11T16:01:37.501Z,0.30
2023-03-11T16:04:04.017Z,0.40
2023-03-11T16:06:30.416Z,0.55
2023-03-11T16:08:56.762Z,0.60
2023-03-11T16:11:23.136Z,1.13
2023-03-11T16:13:49.547Z,0.70
2023-03-11T16:16:17.139Z,0.90
2023-03-11T16:18:43.494Z,0.70
2023-03-11T16:21:15.546Z,0.63
2023-03-11T16:23:51.631Z,0.65
2023-03-11T16:26:18.913Z,0.60
2023-03-11T16:28:45.278Z,1.00
2023-03-11T16:31:11.713Z,0.55
2023-03-11T16:33:38.089Z,0.60
2023-03-11T16:36:05.239Z,1.00
2023-03-11T16:38:31.735Z,0.73
2023-03-11T16:41:01.938Z,0.70
2023-03-11T16:43:29.530Z,0.40
2023-03-11T16:45:56.087Z,0.90
2023-03-11T16:48:22.955Z,0.40
2023-03-11T16:50:49.328Z,0.60
2023-03-11T16:53:17.495Z,0.98
2023-03-11T16:55:47.106Z,0.30
2023-03-11T16:58:14.355Z,0.90
2023-03-11T17:00:41.909Z,0.80
2023-03-11T17:03:10.955Z,0.88
2023-03-11T17:05:37.323Z,0.80
2023-03-11T17:08:04.398Z,0.70
2023-03-11T17:10:36.239Z,0.40
2023-03-11T17:13:02.605Z,0.90
2023-03-11T17:15:28.947Z,0.52
2023-03-11T17:17:55.313Z,1.60
2023-03-11T17:20:21.888Z,1.10
2023-03-11T17:22:48.368Z,0.82
2023-03-11T17:25:14.977Z,1.20
2023-03-11T17:27:41.434Z,1.20
2023-03-11T17:30:08.203Z,0.65
2023-03-11T17:32:34.714Z,0.77
2023-03-11T17:35:01.368Z,0.77
2023-03-11T17:37:27.663Z,1.13
2023-03-11T17:39:54.101Z,0.90
2023-03-11T17:42:20.552Z,0.93
2023-03-11T17:44:51.886Z,2.08
2023-03-11T17:47:19.939Z,1.10
2023-03-11T17:49:46.818Z,1.50
2023-03-11T17:52:13.215Z,0.90
2023-03-11T17:54:39.748Z,1.25
2023-03-11T17:57:06.289Z,1.02
2023-03-11T17:59:32.593Z,1.08
2023-03-11T18:01:58.955Z,0.80
2023-03-11T18:04:25.343Z,1.02
2023-03-11T18:06:53.406Z,0.80
2023-03-11T18:09:19.763Z,0.82
2023-03-11T18:11:47.065Z,1.10
2023-03-11T18:14:13.432Z,0.90
2023-03-11T18:16:40.052Z,1.27
2023-03-11T18:19:06.450Z,1.27
2023-03-11T18:21:32.919Z,1.13
2023-03-11T18:24:00.488Z,1.50
2023-03-11T18:26:27.886Z,1.42
2023-03-11T18:28:55.179Z,1.67
2023-03-11T18:31:22.761Z,1.80
2023-03-11T18:33:50.614Z,1.30
2023-03-11T18:36:16.944Z,1.13
2023-03-11T18:38:43.518Z,1.20
2023-03-11T18:41:10.249Z,1.20
2023-03-11T18:43:36.721Z,1.23
2023-03-11T18:46:06.559Z,1.10
2023-03-11T18:48:33.004Z,1.13
2023-03-11T18:50:59.357Z,1.38
2023-03-11T18:53:25.914Z,1.35
2023-03-11T18:55:52.726Z,1.23
2023-03-11T18:58:19.441Z,1.42
2023-03-11T19:00:46.080Z,1.40
2023-03-11T19:03:12.446Z,1.00
2023-03-11T19:05:38.757Z,1.70
2023-03-11T19:08:05.269Z,1.38
2023-03-11T19:10:31.736Z,1.73
2023-03-11T19:12:58.172Z,1.40
2023-03-11T19:15:24.598Z,1.20
2023-03-11T19:18:04.325Z,1.55
2023-03-11T19:20:32.532Z,1.70
2023-03-11T19:22:58.908Z,1.50
2023-03-11T19:25:27.795Z,1.20
2023-03-11T19:27:54.646Z,1.35
2023-03-11T19:30:21.165Z,4.60
2023-03-11T19:32:47.826Z,10.93
2023-03-11T19:35:14.396Z,10.95
2023-03-11T19:37:40.948Z,9.45
2023-03-11T19:40:09.720Z,7.45
2023-03-11T19:42:37.433Z,5.38
2023-03-11T19:45:04.025Z,3.80
2023-03-11T19:47:30.491Z,4.63
2023-03-11T19:49:56.826Z,2.60
2023-03-11T19:52:23.367Z,2.50
2023-03-11T19:54:50.268Z,1.95
2023-03-11T19:57:17.080Z,2.17
2023-03-11T19:59:43.521Z,3.25
2023-03-11T20:02:13.360Z,1.83
2023-03-11T20:04:42.975Z,1.77
2023-03-11T20:07:09.800Z,1.98
2023-03-11T20:09:36.418Z,2.67
2023-03-11T20:12:02.870Z,3.05
2023-03-11T20:14:29.324Z,3.38
2023-03-11T20:16:55.831Z,3.50
2023-03-11T20:19:22.358Z,4.07
2023-03-11T20:21:48.934Z,3.17
2023-03-11T20:24:15.306Z,3.78
2023-03-11T20:26:41.794Z,2.65
2023-03-11T20:29:08.362Z,3.70
2023-03-11T20:31:36.362Z,3.40
2023-03-11T20:34:03.004Z,2.70
2023-03-11T20:36:30.760Z,2.83
2023-03-11T20:38:57.248Z,2.35
2023-03-11T20:41:24.805Z,1.90
2023-03-11T20:43:52.016Z,3.00
2023-03-11T20:46:18.772Z,1.85
2023-03-11T20:48:45.463Z,2.22
2023-03-11T20:51:13.432Z,2.35
2023-03-11T20:53:39.908Z,2.25
2023-03-11T20:56:10.451Z,2.55
2023-03-11T20:58:37.345Z,3.65
2023-03-11T21:01:12.916Z,2.90
2023-03-11T21:03:39.457Z,2.17
2023-03-11T21:06:12.332Z,3.03
2023-03-11T21:08:38.756Z,2.60
2023-03-11T21:11:05.119Z,2.30
2023-03-11T21:13:33.238Z,2.90
2023-03-11T21:15:59.747Z,3.08
2023-03-11T21:18:26.354Z,3.40
2023-03-11T21:20:52.858Z,3.28
2023-03-11T21:23:19.393Z,2.72
2023-03-11T21:25:45.793Z,2.03
2023-03-11T21:28:13.466Z,2.08
2023-03-11T21:30:41.549Z,2.40
2023-03-11T21:33:08.336Z,2.15
2023-03-11T21:35:34.734Z,2.17
2023-03-11T21:38:01.438Z,2.10
2023-03-11T21:40:27.941Z,2.58
2023-03-11T21:42:54.286Z,1.67
2023-03-11T21:45:20.834Z,2.05
2023-03-11T21:47:47.191Z,2.50
2023-03-11T21:50:13.791Z,2.75
2023-03-11T21:52:40.367Z,2.28
2023-03-11T21:55:06.844Z,2.97
2023-03-11T21:57:33.212Z,1.70
2023-03-11T21:59:59.642Z,2.40
2023-03-11T22:02:26.124Z,1.98
2023-03-11T22:04:52.600Z,2.58
2023-03-11T22:07:19.165Z,1.92
2023-03-11T22:09:45.770Z,2.83
2023-03-11T22:12:12.292Z,2.22
2023-03-11T22:14:38.909Z,2.58
2023-03-11T22:17:05.451Z,2.30
2023-03-11T22:19:31.913Z,1.95
2023-03-11T22:21:58.319Z,2.17
2023-03-11T22:24:24.858Z,2.90
2023-03-11T22:26:51.494Z,2.35
2023-03-11T22:29:18.106Z,2.60
2023-03-11T22:31:44.816Z,3.60
2023-03-11T22:34:11.259Z,2.13
2023-03-11T22:36:37.653Z,2.95
2023-03-11T22:39:04.998Z,2.78
2023-03-11T22:41:31.851Z,3.05
2023-03-11T22:43:58.484Z,2.22
2023-03-11T22:46:25.666Z,3.22
2023-03-11T22:48:52.207Z,2.72
2023-03-11T22:51:18.647Z,2.45
2023-03-11T22:53:45.176Z,2.58
2023-03-11T22:56:13.184Z,2.65
2023-03-11T22:58:39.980Z,2.13
2023-03-11T23:01:06.669Z,2.03
2023-03-11T23:03:33.847Z,2.40
2023-03-11T23:06:00.976Z,2.22
2023-03-11T23:08:27.369Z,2.60
2023-03-11T23:10:53.905Z,2.20
2023-03-11T23:13:20.318Z,2.30
2023-03-11T23:15:47.272Z,2.25
2023-03-11T23:18:14.685Z,1.90
2023-03-11T23:20:41.931Z,1.60
2023-03-11T23:23:09.143Z,1.60
2023-03-11T23:25:36.251Z,2.28
2023-03-11T23:28:03.490Z,1.80
2023-03-11T23:30:30.018Z,2.10
2023-03-11T23:32:57.298Z,1.40
2023-03-11T23:35:24.023Z,2.15
2023-03-11T23:37:50.940Z,1.90
2023-03-11T23:40:17.789Z,2.67
2023-03-11T23:42:44.160Z,2.60
2023-03-11T23:45:10.948Z,1.60
2023-03-11T23:47:37.343Z,2.35
2023-03-11T23:50:03.866Z,1.77
2023-03-11T23:52:30.216Z,3.17
2023-03-11T23:54:56.741Z,2.15
2023-03-11T23:57:23.155Z,2.20
2023-03-11T23:59:49.547Z,2.35
